createdAt,value
2019-05-17T00:02:03.596Z,296
2019-05-17T00:07:06.473Z,299
2019-05-17T00:12:08.958Z,299
2019-05-17T00:17:11.422Z,294
2019-05-17T00:22:13.901Z,294
2019-05-17T00:27:17.175Z,295
2019-05-17T00:32:19.793Z,292
2019-05-17T00:37:22.257Z,290
2019-05-17T00:42:26.399Z,289
2019-05-17T00:47:29.066Z,289
2019-05-17T00:52:31.315Z,283
2019-05-17T00:57:33.779Z,288
2019-05-17T01:02:36.421Z,291
2019-05-17T01:07:38.915Z,288
2019-05-17T01:12:41.395Z,291
2019-05-17T01:17:43.640Z,291
2019-05-17T01:22:47.370Z,291
2019-05-17T01:27:50.062Z,291
2019-05-17T01:32:52.305Z,289
2019-05-17T01:37:56.461Z,288
2019-05-17T01:42:58.837Z,288
2019-05-17T01:48:01.310Z,285
2019-05-17T01:53:03.544Z,287
2019-05-17T01:58:07.243Z,286
2019-05-17T02:03:09.767Z,286
2019-05-17T02:08:12.009Z,289
2019-05-17T02:13:16.278Z,290
2019-05-17T02:18:18.983Z,288
2019-05-17T02:23:21.458Z,285
2019-05-17T02:28:23.929Z,288
2019-05-17T02:33:26.400Z,288
2019-05-17T02:38:28.652Z,289
2019-05-17T02:43:33.366Z,290
2019-05-17T02:48:36.170Z,287
2019-05-17T02:53:38.415Z,286
2019-05-17T02:58:43.622Z,288
2019-05-17T03:03:46.302Z,288
2019-05-17T03:08:48.769Z,287
2019-05-17T03:13:52.543Z,288
2019-05-17T03:18:55.266Z,289
2019-05-17T03:23:57.517Z,291
2019-05-17T03:29:02.843Z,289
2019-05-17T03:34:06.921Z,289
2019-05-17T03:39:12.780Z,289
2019-05-17T03:44:15.209Z,291
2019-05-17T03:49:17.455Z,293
2019-05-17T03:54:22.598Z,296
2019-05-17T03:59:25.051Z,299
2019-05-17T04:37:44.353Z,352
2019-05-17T04:42:47.498Z,316
2019-05-17T04:47:52.659Z,306
2019-05-17T04:52:55.450Z,299
2019-05-17T05:03:03.581Z,303
2019-05-17T05:08:06.419Z,307
2019-05-17T05:13:08.997Z,314
2019-05-17T05:18:13.152Z,314
2019-05-17T05:23:16.141Z,320
2019-05-17T05:28:18.377Z,322
2019-05-17T05:33:22.132Z,329
2019-05-17T05:38:24.940Z,330
2019-05-17T05:43:27.655Z,332
2019-05-17T05:48:32.361Z,336
2019-05-17T05:53:35.196Z,364
2019-05-17T05:58:37.771Z,365
2019-05-17T06:08:43.069Z,384
2019-05-17T06:13:45.658Z,379
2019-05-17T06:18:48.248Z,381
2019-05-17T06:23:51.606Z,383
2019-05-17T06:28:54.369Z,411
2019-05-17T06:33:57.053Z,399
2019-05-17T06:39:02.090Z,399
2019-05-17T06:44:04.898Z,405
2019-05-17T06:49:07.589Z,408
2019-05-17T06:54:11.955Z,412
2019-05-17T06:59:14.689Z,422
2019-05-17T07:04:19.215Z,420
2019-05-17T07:09:21.985Z,426
2019-05-17T07:14:24.691Z,429
2019-05-17T07:19:27.268Z,432
2019-05-17T07:24:30.049Z,434
2019-05-17T07:29:32.720Z,437
2019-05-17T07:34:35.336Z,435
2019-05-17T07:39:40.047Z,459
2019-05-17T07:44:44.742Z,470
2019-05-17T07:49:49.398Z,487
2019-05-17T07:54:52.179Z,501
2019-05-17T07:59:54.830Z,514
2019-05-17T08:04:57.459Z,526
2019-05-17T08:10:00.324Z,532
2019-05-17T08:15:03.066Z,535
2019-05-17T08:20:05.696Z,539
2019-05-17T08:30:11.120Z,530
2019-05-17T08:35:13.905Z,513
2019-05-17T08:40:16.520Z,500
2019-05-17T08:45:20.560Z,507
2019-05-17T08:50:52.718Z,506
2019-05-17T08:55:21.775Z,798
2019-05-17T08:55:42.277Z,749
2019-05-17T08:56:10.161Z,789
2019-05-17T08:58:52.756Z,858
2019-05-17T08:59:33.246Z,572
2019-05-17T09:02:10.868Z,867
2019-05-17T09:06:14.654Z,512
2019-05-17T09:11:19.648Z,495
2019-05-17T09:16:23.629Z,492
2019-05-17T09:26:31.586Z,479
2019-05-17T09:31:35.473Z,477
2019-05-17T09:36:40.782Z,489
2019-05-17T09:41:44.959Z,477
2019-05-17T09:46:50.345Z,473
2019-05-17T09:51:54.485Z,474
2019-05-17T09:57:00.410Z,479
2019-05-17T10:07:10.127Z,518
2019-05-17T10:12:14.250Z,529
2019-05-17T10:22:50.343Z,546
2019-05-17T10:27:54.440Z,523
2019-05-17T10:32:59.956Z,519
2019-05-17T10:38:04.053Z,505
2019-05-17T10:43:10.006Z,496
2019-05-17T10:46:40.612Z,495
2019-05-17T10:51:56.306Z,486
2019-05-17T10:57:02.570Z,487
2019-05-17T11:02:06.412Z,479
2019-05-17T11:07:12.563Z,481
2019-05-17T11:12:16.505Z,478
2019-05-17T11:17:20.318Z,476
2019-05-17T11:22:24.334Z,478
2019-05-17T11:27:28.156Z,481
2019-05-17T11:32:32.185Z,491
2019-05-17T11:37:36.273Z,518
2019-05-17T11:42:40.128Z,525
2019-05-17T11:47:44.027Z,545
2019-05-17T11:52:47.861Z,548
2019-05-17T11:57:51.848Z,571
2019-05-17T12:02:55.516Z,554
2019-05-17T12:07:59.304Z,534
2019-05-17T12:13:03.197Z,539
2019-05-17T12:18:07.117Z,528
2019-05-17T12:23:10.941Z,530
2019-05-17T12:28:14.881Z,536
2019-05-17T12:33:18.768Z,542
2019-05-17T12:43:26.703Z,599
2019-05-17T12:48:30.153Z,581
2019-05-17T12:54:31.399Z,556
2019-05-17T12:59:07.689Z,607
2019-05-17T13:04:17.721Z,590
2019-05-17T13:14:38.109Z,602
2019-05-17T13:19:48.198Z,598
2019-05-17T13:30:08.518Z,624
2019-05-17T13:35:18.587Z,621
2019-05-17T13:40:28.669Z,613
2019-05-17T13:45:39.060Z,606
2019-05-17T13:50:54.229Z,589
2019-05-17T14:01:14.567Z,549
2019-05-17T14:06:24.636Z,531
2019-05-17T14:16:44.618Z,509
2019-05-17T14:21:54.421Z,490
2019-05-17T14:27:04.891Z,504
2019-05-17T14:32:14.884Z,481
2019-05-17T14:37:25.343Z,466
2019-05-17T14:42:35.528Z,466
2019-05-17T14:47:45.696Z,464
2019-05-17T14:52:55.829Z,457
2019-05-17T14:58:05.987Z,464
2019-05-17T15:03:16.018Z,467
2019-05-17T15:08:26.089Z,459
2019-05-17T15:13:36.435Z,453
2019-05-17T15:18:46.145Z,444
2019-05-17T15:23:56.240Z,446
2019-05-17T15:29:06.368Z,450
2019-05-17T15:34:16.407Z,457
2019-05-17T15:39:26.480Z,430
2019-05-17T15:44:36.560Z,417
2019-05-17T16:57:46.224Z,856
2019-05-17T17:07:12.047Z,1269
2019-05-17T17:12:20.932Z,827
2019-05-17T17:17:29.802Z,791
2019-05-17T17:22:39.250Z,786
2019-05-17T17:27:48.417Z,788
2019-05-17T17:32:57.563Z,793
2019-05-17T17:38:06.443Z,793
2019-05-17T17:43:15.886Z,798
2019-05-17T17:48:25.057Z,802
2019-05-17T17:53:34.212Z,806
2019-05-17T17:58:43.375Z,819
2019-05-17T18:03:52.554Z,538
2019-05-17T18:09:01.839Z,463
2019-05-17T18:14:14.220Z,482
2019-05-17T18:19:23.690Z,500
2019-05-17T18:24:32.546Z,514
2019-05-17T18:29:41.702Z,535
2019-05-17T18:34:50.585Z,571
2019-05-17T18:40:00.024Z,638
2019-05-17T18:45:08.912Z,685
2019-05-17T18:50:18.064Z,721
2019-05-17T18:55:27.227Z,755
2019-05-17T19:00:36.420Z,781
2019-05-17T19:05:45.843Z,604
2019-05-17T19:10:56.416Z,705
2019-05-17T19:16:05.812Z,769
2019-05-17T19:21:14.688Z,809
2019-05-17T19:26:24.123Z,870
2019-05-17T19:31:33.589Z,912
2019-05-17T19:36:43.289Z,963
2019-05-17T19:41:52.717Z,996
2019-05-17T19:47:01.601Z,1024
2019-05-17T19:52:10.795Z,1048
2019-05-17T19:57:19.670Z,1068
2019-05-17T20:02:29.566Z,1090
2019-05-17T20:07:39.431Z,1100
2019-05-17T20:12:48.663Z,1108
2019-05-17T20:17:58.108Z,1129
2019-05-17T20:23:07.273Z,1142
2019-05-17T20:28:16.711Z,1154
2019-05-17T20:33:25.881Z,1180
2019-05-17T20:38:35.323Z,1187
2019-05-17T20:43:44.272Z,1199
2019-05-17T20:48:54.949Z,1205
2019-05-17T20:54:04.345Z,1217
2019-05-17T20:59:13.228Z,1218
2019-05-17T21:04:22.965Z,1234
2019-05-17T21:09:32.118Z,1251
2019-05-17T21:14:41.297Z,1255
2019-05-17T21:19:50.738Z,1260
2019-05-17T21:25:00.460Z,1267
2019-05-17T21:30:09.908Z,1280
2019-05-17T21:35:18.791Z,1292
2019-05-17T21:40:27.952Z,1299
2019-05-17T21:45:37.408Z,1313
2019-05-17T21:50:46.573Z,1319
2019-05-17T21:55:55.726Z,1323
2019-05-17T22:01:04.618Z,1327
2019-05-17T22:06:14.348Z,1357
2019-05-17T22:11:23.518Z,1380
2019-05-17T22:16:32.676Z,1431
2019-05-17T22:21:41.553Z,1458
2019-05-17T22:26:51.000Z,1483
2019-05-17T22:32:00.728Z,1514
2019-05-17T22:37:09.614Z,1547
2019-05-17T22:42:18.494Z,1565
2019-05-17T22:47:27.651Z,1583
2019-05-17T22:52:36.816Z,1599
2019-05-17T22:57:46.278Z,1627
2019-05-17T23:02:55.158Z,1656
2019-05-17T23:08:04.036Z,1689
2019-05-17T23:13:13.197Z,1720
2019-05-17T23:18:22.818Z,1748
2019-05-17T23:23:31.959Z,1767
2019-05-17T23:28:40.842Z,1787
2019-05-17T23:33:50.287Z,1802
2019-05-17T23:38:59.167Z,1819
2019-05-17T23:44:08.326Z,1823
2019-05-17T23:49:17.217Z,1828
2019-05-17T23:54:26.382Z,1824
2019-05-17T23:59:35.549Z,1828
